Werte bis 5 Uhr SommerzeitDiagramme Eichhof: Tagesdaten Monatsdaten WindroseCSV-Datei: Eichhof21.csv

Wetterdaten 2021 Station: Eichhof
Temperaturen in °C relative Nieder- Global- Wind Wind Wind- Sonnen-
Datum Boden Boden Luft Luft Luft Luft Feuchte schlag strahlung max richtung schein
20 cm 5 cm 20 cm 2 m 2 m max 2 m min % mm W/m2*d m/s m/s ° h

04.05.2021 9,8 0,0 8,1 9,0 12,6 5,0 64 8,7 1713 5,6 23,3 213 ---
03.05.2021 9,9 0,0 7,4 7,3 14,0 -0,1 57 0,0 6752 3,0 13,4 217 ---
02.05.2021 10,5 0,0 7,6 8,0 11,0 2,9 53 0,0 2879 2,4 12,4 277 ---
01.05.2021 10,7 0,0 9,5 9,9 14,8 5,5 65 0,0 3326 1,4 6,7 242 ---
30.04.2021 10,6 0,0 7,4 7,7 11,4 3,8 72 0,0 2496 1,7 5,6 177 ---
29.04.2021 11,4 0,0 9,9 10,6 15,8 5,3 69 4,2 4401 3,5 15,6 214 ---
28.04.2021 10,2 0,0 11,0 11,1 20,4 0,4 53 0,1 6712 1,4 10,9 68 ---
27.04.2021 9,4 0,0 7,5 7,5 14,1 -0,5 47 0,0 7721 2,8 8,9 35 ---
26.04.2021 9,2 0,0 5,4 5,5 11,9 -2,2 50 0,0 7806 2,3 9,0 42 ---
25.04.2021 9,6 0,0 4,7 5,0 11,0 -1,5 63 0,0 7321 2,0 8,5 15 ---
24.04.2021 9,5 0,0 5,7 6,3 14,4 -1,5 64 0,0 6709 1,7 9,3 30 ---
23.04.2021 9,4 0,0 5,1 5,7 14,1 -1,8 66 0,0 6498 1,1 7,4 338 ---
22.04.2021 9,8 0,0 5,6 6,6 11,4 0,0 55 0,0 6644 2,1 10,8 333 ---
21.04.2021 10,0 0,0 8,7 10,1 16,7 5,3 71 0,1 4037 1,8 11,2 241 ---
20.04.2021 8,8 0,0 6,4 7,6 17,4 0,0 79 9,8 5333 1,1 11,0 202 ---
19.04.2021 8,4 0,0 6,2 7,8 13,0 2,8 78 0,0 3731 1,8 7,8 38 ---
18.04.2021 7,5 0,0 5,9 7,2 13,2 4,1 84 6,8 2488 0,9 6,1 292 ---
17.04.2021 6,7 0,0 3,2 4,7 9,3 -1,2 67 0,0 2388 1,0 7,3 9 ---
16.04.2021 6,5 0,0 3,7 5,1 9,6 1,1 60 0,0 2928 2,1 10,3 38 ---
15.04.2021 6,2 0,0 0,7 1,9 8,1 -3,5 75 0,0 3616 1,5 10,9 34 ---
14.04.2021 6,4 0,0 0,3 1,5 8,2 -3,4 79 0,7 4486 1,2 10,2 29 ---
13.04.2021 6,7 0,0 1,0 2,0 8,3 -2,9 75 0,0 3901 1,5 11,8 245 ---
12.04.2021 7,3 0,0 2,4 3,6 8,6 0,5 73 0,0 3825 1,5 9,6 243 ---
11.04.2021 7,7 0,0 5,4 7,1 14,4 2,2 89 5,6 1313 1,4 14,7 243 ---
10.04.2021 6,9 0,0 5,7 6,9 9,1 4,5 92 13,6 1510 1,0 3,9 50 ---
09.04.2021 5,6 0,0 4,1 5,1 13,2 -2,9 65 0,0 4508 1,8 10,0 206 ---
08.04.2021 5,2 0,0 1,2 2,2 6,0 -1,4 72 0,5 3115 2,7 10,0 218 ---
07.04.2021 5,4 0,0 0,3 1,0 3,9 -0,8 84 4,3 1714 3,6 11,5 215 ---
06.04.2021 5,9 0,0 0,9 1,2 6,2 -1,2 77 2,2 4045 3,7 16,7 229 ---
05.04.2021 7,2 0,0 1,5 2,4 5,5 -1,2 81 5,4 1219 3,0 11,8 239 ---
04.04.2021 8,1 0,0 4,1 4,4 11,3 0,3 73 0,0 3848 1,4 6,7 237 ---
03.04.2021 8,7 0,0 4,8 5,4 11,1 0,9 68 0,1 4254 2,0 10,4 349 ---
02.04.2021 9,5 0,0 6,7 7,1 11,2 5,2 66 0,0 3815 2,5 10,2 353 ---
01.04.2021 10,0 0,0 9,5 11,3 23,2 3,1 63 0,0 4937 2,3 12,6 267 ---
31.03.2021 9,3 0,0 9,6 11,5 24,3 0,3 61 0,0 5815 1,3 5,9 200 ---
30.03.2021 8,5 0,0 8,4 10,1 22,7 0,0 63 0,0 5950 1,3 4,8 200 ---
29.03.2021 7,5 0,0 8,3 10,7 19,1 2,6 60 0,0 5451 2,5 10,2 203 ---
28.03.2021 6,0 0,0 3,8 5,8 12,8 -1,6 71 0,0 3283 3,0 12,5 221 ---
27.03.2021 7,1 0,0 2,1 4,2 8,3 -0,2 85 11,4 2552 2,9 16,8 220 ---
26.03.2021 7,4 0,0 6,8 8,8 15,7 2,6 68 0,0 4643 2,0 9,3 204 ---
25.03.2021 6,3 0,0 5,1 7,0 16,2 -1,3 72 0,2 3627 1,4 7,0 212 ---
24.03.2021 5,4 0,0 3,2 4,8 14,8 -2,6 74 0,0 5319 1,9 7,7 213 ---
23.03.2021 5,5 0,0 2,8 4,9 7,8 -0,1 78 0,0 1246 1,7 5,5 220 ---
22.03.2021 5,0 0,0 3,1 4,7 8,0 2,2 71 0,2 1874 1,4 7,0 326 ---
21.03.2021 4,6 0,0 2,9 4,6 7,6 1,9 63 0,1 1977 2,9 14,8 280 ---
20.03.2021 3,9 0,0 -0,3 0,8 5,9 -4,7 52 0,0 4711 1,5 6,0 59 ---
19.03.2021 4,3 0,0 -0,2 1,4 5,8 -1,6 80 1,4 3157 2,5 17,5 37 ---
18.03.2021 3,9 0,0 -0,5 0,9 6,5 -4,1 81 0,6 2321 1,1 5,9 226 ---
17.03.2021 4,7 0,0 -0,1 1,8 5,6 -2,6 74 0,0 1866 1,3 6,9 337 ---
16.03.2021 5,0 0,0 2,2 4,2 8,3 -0,1 74 1,7 2628 1,4 10,4 297 ---
15.03.2021 5,0 0,0 2,4 4,3 7,6 2,0 81 4,2 1974 2,4 10,1 230 ---
14.03.2021 4,9 0,0 2,5 4,5 7,3 2,9 76 0,6 2267 4,2 13,0 222 ---
13.03.2021 5,3 0,0 3,0 5,4 8,2 2,8 81 7,5 1305 5,4 26,5 213 ---
12.03.2021 5,5 0,0 4,1 6,2 9,2 2,2 68 7,3 2508 5,7 20,1 218 ---
11.03.2021 5,2 0,0 5,5 8,0 12,0 5,3 74 4,3 1224 5,6 16,1 211 ---
10.03.2021 4,1 0,0 3,1 4,8 8,2 1,9 77 0,0 2339 2,0 11,1 215 ---
09.03.2021 3,0 0,0 -0,5 1,1 5,1 -1,9 89 4,9 1522 1,1 6,5 213 ---
08.03.2021 2,9 0,0 -1,9 -0,3 4,6 -3,6 84 0,0 1359 1,4 5,1 227 ---
07.03.2021 3,1 0,0 -2,2 -0,8 8,2 -6,7 74 0,0 4640 1,2 8,2 233 ---
06.03.2021 3,6 0,0 -2,6 -1,1 7,5 -6,3 74 0,0 4430 0,8 6,3 173 ---
05.03.2021 5,0 0,0 0,1 2,0 5,3 -3,8 71 0,0 1850 2,2 8,0 23 ---
04.03.2021 5,3 0,0 2,9 4,9 9,6 0,9 90 3,4 1080 1,6 7,4 249 ---
03.03.2021 4,9 0,0 1,9 4,1 15,2 -2,7 78 0,0 2791 1,6 7,0 213 ---
02.03.2021 5,2 0,0 3,1 4,7 15,8 -0,1 81 0,0 3432 1,5 4,9 81 ---
01.03.2021 4,5 0,0 1,8 3,5 9,0 -1,6 88 0,0 2575 2,9 7,8 27 ---
28.02.2021 4,6 0,0 1,8 3,8 10,8 -2,5 77 0,0 4011 1,3 6,1 34 ---
27.02.2021 4,5 0,0 1,3 2,9 6,0 -0,2 85 0,0 1098 1,3 6,2 317 ---
26.02.2021 5,2 0,0 1,2 3,6 6,5 0,7 92 1,9 624 1,1 9,3 203 ---
25.02.2021 5,6 0,0 5,1 7,6 19,0 0,7 78 0,0 3269 1,6 6,4 203 ---
24.02.2021 5,0 0,0 5,1 7,7 18,4 0,1 81 0,0 3079 1,4 8,1 199 ---
23.02.2021 4,0 0,0 4,8 7,0 18,6 -0,5 79 0,0 2860 1,5 10,9 205 ---
22.02.2021 3,2 0,0 1,1 3,1 13,2 -2,7 83 0,0 3027 1,2 4,7 232 ---
21.02.2021 2,8 0,0 2,4 4,6 18,4 -2,4 79 0,0 3510 1,0 7,7 194 ---
20.02.2021 1,8 0,0 1,5 3,5 15,5 -1,9 86 0,0 2602 0,5 5,9 178 ---
19.02.2021 1,1 0,0 1,5 3,8 9,0 -0,8 82 0,9 2759 1,6 9,3 205 ---
18.02.2021 0,8 0,0 -0,8 0,9 7,5 -2,3 93 0,0 1461 0,6 3,2 196 ---
17.02.2021 0,7 0,0 1,1 3,8 8,7 -1,5 87 2,9 1274 1,5 6,3 219 ---
16.02.2021 0,7 0,0 -0,1 2,4 9,1 -1,0 88 0,0 1985 1,4 7,3 208 ---
15.02.2021 0,7 0,0 -8,5 -6,9 0,9 -14,3 86 0,4 745 1,4 9,5 209 ---
14.02.2021 0,8 0,0 -14,3 -12,5 0,5 -20,8 82 0,0 3473 0,4 3,3 184 ---
13.02.2021 1,0 0,0 -13,4 -11,1 -3,7 -18,9 81 0,0 3367 1,6 6,1 21 ---
12.02.2021 1,2 0,0 -11,7 -9,9 -4,6 -14,5 82 0,0 2772 2,2 10,4 34 ---
11.02.2021 1,3 0,0 -8,1 -7,1 1,0 -11,3 78 0,1 1632 0,8 5,6 291 ---
10.02.2021 1,4 0,0 -13,2 -12,2 -5,5 -19,4 80 0,0 2958 2,3 9,6 38 ---
09.02.2021 1,7 0,0 -12,2 -11,8 -7,9 -17,3 75 0,0 2273 1,5 6,0 31 ---
08.02.2021 1,9 0,0 -8,8 -8,5 -7,3 -10,3 83 2,3 1127 4,3 9,1 31 ---
07.02.2021 2,5 0,0 -5,9 -4,5 -1,3 -7,3 83 4,7 288 6,0 13,2 31 ---
06.02.2021 3,9 0,0 -0,5 1,4 4,4 -1,6 91 4,5 291 4,3 13,1 32 ---
05.02.2021 4,1 0,0 0,7 2,8 5,6 -1,0 93 3,6 636 0,6 2,8 12 ---
04.02.2021 5,2 0,0 3,9 6,2 9,3 0,5 79 2,0 1507 2,9 10,0 225 ---
03.02.2021 4,0 0,0 4,7 7,4 10,6 2,8 92 14,5 423 1,9 11,8 216 ---
02.02.2021 2,7 0,0 2,4 4,5 8,0 1,9 94 2,9 368 1,4 8,4 216 ---
01.02.2021 1,7 0,0 -0,8 0,9 3,1 -1,3 93 1,4 633 1,6 4,1 34 ---
31.01.2021 2,0 0,0 -2,9 -1,1 4,1 -5,2 75 0,0 2262 2,0 8,6 44 ---
30.01.2021 3,4 0,0 0,0 1,8 7,1 -0,9 78 2,2 718 4,2 11,0 20 ---
29.01.2021 2,8 0,0 2,3 4,4 9,9 1,2 89 15,2 522 2,4 10,7 195 ---
28.01.2021 2,1 0,0 0,1 1,9 3,0 1,3 96 14,7 179 1,6 5,6 184 ---
27.01.2021 1,7 0,0 -1,5 0,4 1,4 -1,1 90 0,7 356 2,4 8,0 217 ---
26.01.2021 1,8 0,0 -1,8 0,2 3,5 -2,9 88 1,9 587 2,1 8,6 231 ---
25.01.2021 2,2 0,0 -3,1 -1,2 1,7 -3,5 91 0,3 788 0,9 3,5 247 ---
24.01.2021 3,0 0,0 -0,8 1,2 2,2 -1,0 89 0,9 462 1,7 7,2 251 ---
23.01.2021 3,4 0,0 -0,5 1,6 3,6 -0,5 93 0,1 382 1,3 5,7 207 ---
22.01.2021 4,2 0,0 2,9 5,2 10,1 0,4 87 5,0 472 3,3 16,8 202 ---
21.01.2021 3,0 0,0 4,2 7,2 10,9 3,5 66 2,9 399 4,2 15,7 211 ---
20.01.2021 2,3 0,0 1,0 3,8 8,8 -0,7 69 0,0 995 1,9 8,4 213 ---
19.01.2021 1,9 0,0 0,7 2,8 4,2 1,3 85 3,5 207 4,8 12,8 215 ---
18.01.2021 1,2 0,0 -0,5 1,6 3,2 -0,6 89 0,5 585 3,0 8,5 217 ---
17.01.2021 1,1 0,0 -3,3 -1,8 -0,6 -3,3 88 1,6 373 1,1 4,0 212 ---
16.01.2021 1,3 0,0 -3,2 -1,7 -0,6 -2,4 64 0,0 426 1,9 5,9 244 ---
15.01.2021 1,5 0,0 -2,8 -0,8 0,9 -4,0 81 0,0 367 1,2 4,9 360 ---
14.01.2021 1,6 0,0 -1,1 0,8 3,5 -0,2 70 0,4 934 1,4 9,5 352 ---
13.01.2021 1,5 0,0 -1,5 0,7 3,4 -2,1 81 0,8 741 3,7 11,5 218 ---
12.01.2021 1,5 0,0 -1,0 1,2 3,1 -0,4 88 2,8 268 3,2 9,8 219 ---
11.01.2021 1,7 0,0 -3,6 -2,2 0,7 -5,7 79 0,0 1067 2,8 9,2 216 ---
10.01.2021 2,2 0,0 -2,4 -0,8 1,8 -4,4 88 0,0 829 1,4 3,7 225 ---
09.01.2021 2,3 0,0 -2,1 -0,3 2,2 -1,9 85 0,0 513 0,9 6,2 226 ---
08.01.2021 2,6 0,0 -1,4 0,4 1,5 -0,4 94 2,0 525 1,6 5,2 206 ---
07.01.2021 2,8 0,0 -1,4 0,4 1,5 -0,2 89 0,5 380 2,2 6,8 210 ---
06.01.2021 2,9 0,0 -0,4 1,5 2,3 0,8 87 0,0 166 1,6 7,1 14 ---
05.01.2021 2,8 0,0 -0,8 0,9 1,6 0,5 91 0,1 290 3,3 7,7 33 ---
04.01.2021 2,9 0,0 -1,1 0,7 1,0 0,3 88 0,0 152 3,1 7,1 27 ---
03.01.2021 3,2 0,0 -0,6 1,3 2,3 0,1 82 0,5 122 3,5 9,7 27 ---
02.01.2021 3,5 0,0 -0,4 1,4 3,1 0,3 85 0,0 508 1,4 8,4 302 ---
01.01.2021 3,7 0,0 -0,2 1,5 2,7 0,8 94 2,3 231 0,5 1,6 188 ---

Mittelwerte (Temperaturen, Strahlung, rel. Feuchte, Wind), Summe (Regen) für 2021
4,8 0,0 1,4 3,0 78 211 2.456 2,1

Landesbetrieb Landwirtschaft Hessen 2009

      Werte bis 5 Uhr SommerzeitCSV-Datei: Eichhof21.csvDiagramm: Eichhof